sensor_id;sensor_type;location;lat;lon;timestamp;P1;durP1;ratioP1;P2;durP2;ratioP2
9712;SDS011;4895;50.926;6.870;2023-05-10T00:01:00;16.70;;;11.67;;
9712;SDS011;4895;50.926;6.870;2023-05-10T00:03:25;15.10;;;11.30;;
9712;SDS011;4895;50.926;6.870;2023-05-10T00:05:51;16.10;;;11.37;;
9712;SDS011;4895;50.926;6.870;2023-05-10T00:08:16;16.93;;;11.80;;
9712;SDS011;4895;50.926;6.870;2023-05-10T00:10:41;15.33;;;11.07;;
9712;SDS011;4895;50.926;6.870;2023-05-10T00:13:06;15.10;;;11.57;;
9712;SDS011;4895;50.926;6.870;2023-05-10T00:15:32;19.33;;;12.00;;
9712;SDS011;4895;50.926;6.870;2023-05-10T00:17:57;16.67;;;11.67;;
9712;SDS011;4895;50.926;6.870;2023-05-10T00:20:22;15.20;;;11.53;;
9712;SDS011;4895;50.926;6.870;2023-05-10T00:22:48;18.60;;;11.27;;
9712;SDS011;4895;50.926;6.870;2023-05-10T00:25:13;17.07;;;11.97;;
9712;SDS011;4895;50.926;6.870;2023-05-10T00:27:38;16.10;;;11.30;;
9712;SDS011;4895;50.926;6.870;2023-05-10T00:30:04;21.63;;;12.93;;
9712;SDS011;4895;50.926;6.870;2023-05-10T00:32:29;18.87;;;12.70;;
9712;SDS011;4895;50.926;6.870;2023-05-10T00:34:55;17.57;;;11.83;;
9712;SDS011;4895;50.926;6.870;2023-05-10T00:37:21;16.50;;;12.40;;
9712;SDS011;4895;50.926;6.870;2023-05-10T00:39:46;17.33;;;12.77;;
9712;SDS011;4895;50.926;6.870;2023-05-10T00:42:11;20.10;;;13.30;;
9712;SDS011;4895;50.926;6.870;2023-05-10T00:44:36;17.87;;;13.50;;
9712;SDS011;4895;50.926;6.870;2023-05-10T00:47:02;27.03;;;14.00;;
9712;SDS011;4895;50.926;6.870;2023-05-10T00:49:27;19.17;;;13.23;;
9712;SDS011;4895;50.926;6.870;2023-05-10T00:51:53;18.17;;;13.20;;
9712;SDS011;4895;50.926;6.870;2023-05-10T00:54:19;20.23;;;13.60;;
9712;SDS011;4895;50.926;6.870;2023-05-10T00:56:45;18.50;;;14.47;;
9712;SDS011;4895;50.926;6.870;2023-05-10T00:59:14;19.90;;;14.20;;
9712;SDS011;4895;50.926;6.870;2023-05-10T01:01:41;20.13;;;14.60;;
9712;SDS011;4895;50.926;6.870;2023-05-10T01:04:06;19.37;;;13.50;;
9712;SDS011;4895;50.926;6.870;2023-05-10T01:06:32;22.23;;;14.23;;
9712;SDS011;4895;50.926;6.870;2023-05-10T01:08:57;23.53;;;13.87;;
9712;SDS011;4895;50.926;6.870;2023-05-10T01:11:22;21.40;;;13.97;;
9712;SDS011;4895;50.926;6.870;2023-05-10T01:13:50;20.10;;;13.57;;
9712;SDS011;4895;50.926;6.870;2023-05-10T01:16:19;21.33;;;14.90;;
9712;SDS011;4895;50.926;6.870;2023-05-10T01:18:44;19.93;;;13.80;;
9712;SDS011;4895;50.926;6.870;2023-05-10T01:21:23;21.27;;;14.70;;
9712;SDS011;4895;50.926;6.870;2023-05-10T01:32:07;17.30;;;13.13;;
9712;SDS011;4895;50.926;6.870;2023-05-10T01:34:58;15.30;;;11.37;;
9712;SDS011;4895;50.926;6.870;2023-05-10T01:37:29;17.07;;;11.20;;
9712;SDS011;4895;50.926;6.870;2023-05-10T01:42:48;16.00;;;11.67;;
9712;SDS011;4895;50.926;6.870;2023-05-10T01:47:53;15.23;;;11.10;;
9712;SDS011;4895;50.926;6.870;2023-05-10T01:50:21;17.43;;;11.40;;
9712;SDS011;4895;50.926;6.870;2023-05-10T01:52:51;21.47;;;11.07;;
9712;SDS011;4895;50.926;6.870;2023-05-10T01:55:20;15.20;;;10.60;;
9712;SDS011;4895;50.926;6.870;2023-05-10T01:57:46;22.50;;;12.23;;
9712;SDS011;4895;50.926;6.870;2023-05-10T02:00:11;19.40;;;11.23;;
9712;SDS011;4895;50.926;6.870;2023-05-10T02:02:42;17.00;;;11.60;;
9712;SDS011;4895;50.926;6.870;2023-05-10T02:05:11;18.40;;;12.47;;
9712;SDS011;4895;50.926;6.870;2023-05-10T02:07:37;18.53;;;12.20;;
9712;SDS011;4895;50.926;6.870;2023-05-10T02:10:04;21.43;;;12.40;;
9712;SDS011;4895;50.926;6.870;2023-05-10T02:12:30;15.60;;;10.43;;
9712;SDS011;4895;50.926;6.870;2023-05-10T02:14:57;19.07;;;11.03;;
9712;SDS011;4895;50.926;6.870;2023-05-10T02:17:24;16.67;;;11.77;;
9712;SDS011;4895;50.926;6.870;2023-05-10T02:19:50;17.60;;;11.80;;
9712;SDS011;4895;50.926;6.870;2023-05-10T02:22:16;19.70;;;11.47;;
9712;SDS011;4895;50.926;6.870;2023-05-10T02:24:42;15.77;;;11.40;;
9712;SDS011;4895;50.926;6.870;2023-05-10T02:27:08;17.07;;;11.90;;
9712;SDS011;4895;50.926;6.870;2023-05-10T02:29:34;17.73;;;11.87;;
9712;SDS011;4895;50.926;6.870;2023-05-10T02:32:01;17.70;;;11.80;;
9712;SDS011;4895;50.926;6.870;2023-05-10T02:34:27;21.70;;;12.90;;
9712;SDS011;4895;50.926;6.870;2023-05-10T02:36:53;20.20;;;12.93;;
9712;SDS011;4895;50.926;6.870;2023-05-10T02:39:20;20.67;;;11.27;;
9712;SDS011;4895;50.926;6.870;2023-05-10T02:41:46;17.90;;;12.40;;
9712;SDS011;4895;50.926;6.870;2023-05-10T02:44:14;16.23;;;11.13;;
9712;SDS011;4895;50.926;6.870;2023-05-10T02:46:40;18.47;;;11.60;;
9712;SDS011;4895;50.926;6.870;2023-05-10T02:49:06;17.57;;;12.00;;
9712;SDS011;4895;50.926;6.870;2023-05-10T02:51:32;20.67;;;12.73;;
9712;SDS011;4895;50.926;6.870;2023-05-10T02:54:01;15.90;;;11.00;;
9712;SDS011;4895;50.926;6.870;2023-05-10T02:56:33;16.00;;;11.40;;
9712;SDS011;4895;50.926;6.870;2023-05-10T02:58:59;15.73;;;10.00;;
9712;SDS011;4895;50.926;6.870;2023-05-10T03:01:24;15.63;;;10.67;;
9712;SDS011;4895;50.926;6.870;2023-05-10T03:03:50;15.67;;;10.17;;
9712;SDS011;4895;50.926;6.870;2023-05-10T03:06:15;15.67;;;10.60;;
9712;SDS011;4895;50.926;6.870;2023-05-10T03:08:41;18.07;;;12.40;;
9712;SDS011;4895;50.926;6.870;2023-05-10T03:16:41;19.30;;;11.73;;
9712;SDS011;4895;50.926;6.870;2023-05-10T03:19:13;17.20;;;11.73;;
9712;SDS011;4895;50.926;6.870;2023-05-10T03:21:43;19.87;;;13.03;;
9712;SDS011;4895;50.926;6.870;2023-05-10T03:24:12;22.43;;;12.80;;
9712;SDS011;4895;50.926;6.870;2023-05-10T03:26:40;20.63;;;12.63;;
9712;SDS011;4895;50.926;6.870;2023-05-10T03:29:08;22.03;;;15.07;;
9712;SDS011;4895;50.926;6.870;2023-05-10T03:31:35;18.80;;;12.80;;
9712;SDS011;4895;50.926;6.870;2023-05-10T03:34:00;17.00;;;12.50;;
9712;SDS011;4895;50.926;6.870;2023-05-10T03:36:26;20.20;;;13.10;;
9712;SDS011;4895;50.926;6.870;2023-05-10T03:38:51;20.27;;;13.07;;
9712;SDS011;4895;50.926;6.870;2023-05-10T03:41:16;21.40;;;13.67;;
9712;SDS011;4895;50.926;6.870;2023-05-10T03:43:42;20.83;;;14.20;;
9712;SDS011;4895;50.926;6.870;2023-05-10T03:46:07;22.07;;;13.97;;
9712;SDS011;4895;50.926;6.870;2023-05-10T03:48:32;24.50;;;14.90;;
9712;SDS011;4895;50.926;6.870;2023-05-10T03:50:58;22.17;;;13.60;;
9712;SDS011;4895;50.926;6.870;2023-05-10T03:53:23;23.53;;;14.57;;
9712;SDS011;4895;50.926;6.870;2023-05-10T03:55:48;23.80;;;13.97;;
9712;SDS011;4895;50.926;6.870;2023-05-10T03:58:14;23.00;;;14.60;;
9712;SDS011;4895;50.926;6.870;2023-05-10T04:00:39;22.07;;;13.80;;
9712;SDS011;4895;50.926;6.870;2023-05-10T04:03:10;21.70;;;13.93;;
9712;SDS011;4895;50.926;6.870;2023-05-10T04:05:35;23.87;;;13.70;;
9712;SDS011;4895;50.926;6.870;2023-05-10T04:08:01;19.70;;;12.73;;
9712;SDS011;4895;50.926;6.870;2023-05-10T04:10:27;21.30;;;13.30;;
9712;SDS011;4895;50.926;6.870;2023-05-10T04:12:52;20.43;;;13.50;;
9712;SDS011;4895;50.926;6.870;2023-05-10T04:15:17;24.37;;;13.40;;
9712;SDS011;4895;50.926;6.870;2023-05-10T04:17:43;21.90;;;13.37;;
9712;SDS011;4895;50.926;6.870;2023-05-10T04:20:08;24.37;;;13.87;;
9712;SDS011;4895;50.926;6.870;2023-05-10T04:22:34;25.83;;;14.20;;
9712;SDS011;4895;50.926;6.870;2023-05-10T04:24:59;29.53;;;15.63;;
9712;SDS011;4895;50.926;6.870;2023-05-10T04:27:24;25.17;;;15.97;;
9712;SDS011;4895;50.926;6.870;2023-05-10T04:29:50;30.30;;;15.77;;
9712;SDS011;4895;50.926;6.870;2023-05-10T04:32:15;26.50;;;16.30;;
9712;SDS011;4895;50.926;6.870;2023-05-10T04:34:42;27.33;;;16.87;;
9712;SDS011;4895;50.926;6.870;2023-05-10T04:37:08;30.07;;;17.30;;
9712;SDS011;4895;50.926;6.870;2023-05-10T04:39:33;28.07;;;16.27;;
9712;SDS011;4895;50.926;6.870;2023-05-10T04:41:59;28.97;;;16.57;;
9712;SDS011;4895;50.926;6.870;2023-05-10T04:44:24;30.67;;;18.07;;
9712;SDS011;4895;50.926;6.870;2023-05-10T04:46:49;26.67;;;16.90;;
9712;SDS011;4895;50.926;6.870;2023-05-10T04:49:14;33.10;;;17.00;;
9712;SDS011;4895;50.926;6.870;2023-05-10T04:51:40;27.00;;;15.70;;
9712;SDS011;4895;50.926;6.870;2023-05-10T04:54:05;26.40;;;16.83;;
9712;SDS011;4895;50.926;6.870;2023-05-10T04:56:30;26.47;;;16.60;;
9712;SDS011;4895;50.926;6.870;2023-05-10T04:58:55;26.20;;;16.60;;
9712;SDS011;4895;50.926;6.870;2023-05-10T05:01:21;29.73;;;16.43;;
9712;SDS011;4895;50.926;6.870;2023-05-10T05:03:47;33.93;;;17.60;;
9712;SDS011;4895;50.926;6.870;2023-05-10T05:06:13;28.90;;;16.37;;
9712;SDS011;4895;50.926;6.870;2023-05-10T05:08:38;31.47;;;16.33;;
9712;SDS011;4895;50.926;6.870;2023-05-10T05:11:03;28.90;;;14.90;;
9712;SDS011;4895;50.926;6.870;2023-05-10T05:13:29;41.53;;;16.73;;
9712;SDS011;4895;50.926;6.870;2023-05-10T05:15:54;25.80;;;14.23;;
9712;SDS011;4895;50.926;6.870;2023-05-10T05:18:20;30.20;;;15.10;;
9712;SDS011;4895;50.926;6.870;2023-05-10T05:20:45;26.47;;;14.90;;
9712;SDS011;4895;50.926;6.870;2023-05-10T05:23:11;35.30;;;15.30;;
9712;SDS011;4895;50.926;6.870;2023-05-10T05:25:36;30.83;;;15.67;;
9712;SDS011;4895;50.926;6.870;2023-05-10T05:28:01;30.37;;;15.43;;
9712;SDS011;4895;50.926;6.870;2023-05-10T05:30:27;31.90;;;15.20;;
9712;SDS011;4895;50.926;6.870;2023-05-10T05:32:52;25.87;;;14.50;;
9712;SDS011;4895;50.926;6.870;2023-05-10T05:35:17;24.07;;;14.47;;
9712;SDS011;4895;50.926;6.870;2023-05-10T05:37:43;30.47;;;13.63;;
9712;SDS011;4895;50.926;6.870;2023-05-10T05:40:08;30.50;;;15.33;;
9712;SDS011;4895;50.926;6.870;2023-05-10T05:42:37;29.63;;;13.67;;
9712;SDS011;4895;50.926;6.870;2023-05-10T05:45:03;32.30;;;15.33;;
9712;SDS011;4895;50.926;6.870;2023-05-10T05:47:29;28.83;;;15.47;;
9712;SDS011;4895;50.926;6.870;2023-05-10T05:49:54;31.83;;;15.03;;
9712;SDS011;4895;50.926;6.870;2023-05-10T05:52:20;32.80;;;15.00;;
9712;SDS011;4895;50.926;6.870;2023-05-10T05:54:46;27.83;;;15.40;;
9712;SDS011;4895;50.926;6.870;2023-05-10T05:57:11;34.00;;;14.93;;
9712;SDS011;4895;50.926;6.870;2023-05-10T05:59:37;31.03;;;14.70;;
9712;SDS011;4895;50.926;6.870;2023-05-10T06:02:06;23.33;;;13.17;;
9712;SDS011;4895;50.926;6.870;2023-05-10T06:04:32;27.73;;;14.50;;
9712;SDS011;4895;50.926;6.870;2023-05-10T06:06:57;36.53;;;14.87;;
9712;SDS011;4895;50.926;6.870;2023-05-10T06:09:23;23.57;;;14.07;;
9712;SDS011;4895;50.926;6.870;2023-05-10T06:11:49;25.37;;;14.13;;
9712;SDS011;4895;50.926;6.870;2023-05-10T06:14:14;27.60;;;14.30;;
9712;SDS011;4895;50.926;6.870;2023-05-10T06:16:40;30.00;;;14.20;;
9712;SDS011;4895;50.926;6.870;2023-05-10T06:19:05;29.83;;;13.67;;
9712;SDS011;4895;50.926;6.870;2023-05-10T06:21:31;31.87;;;15.47;;
9712;SDS011;4895;50.926;6.870;2023-05-10T06:23:56;24.73;;;13.73;;
9712;SDS011;4895;50.926;6.870;2023-05-10T06:26:21;26.90;;;14.03;;
9712;SDS011;4895;50.926;6.870;2023-05-10T06:28:47;24.87;;;14.10;;
9712;SDS011;4895;50.926;6.870;2023-05-10T06:31:12;25.17;;;13.53;;
9712;SDS011;4895;50.926;6.870;2023-05-10T06:33:37;30.17;;;13.37;;
9712;SDS011;4895;50.926;6.870;2023-05-10T06:36:03;28.03;;;13.27;;
9712;SDS011;4895;50.926;6.870;2023-05-10T06:38:28;33.83;;;14.77;;
9712;SDS011;4895;50.926;6.870;2023-05-10T06:40:54;21.03;;;13.33;;
9712;SDS011;4895;50.926;6.870;2023-05-10T06:43:19;27.40;;;14.07;;
9712;SDS011;4895;50.926;6.870;2023-05-10T06:45:44;30.10;;;15.33;;
9712;SDS011;4895;50.926;6.870;2023-05-10T06:48:10;34.43;;;15.80;;
9712;SDS011;4895;50.926;6.870;2023-05-10T06:50:35;34.70;;;15.47;;
9712;SDS011;4895;50.926;6.870;2023-05-10T06:53:00;30.50;;;15.27;;
9712;SDS011;4895;50.926;6.870;2023-05-10T06:55:26;30.10;;;16.33;;
9712;SDS011;4895;50.926;6.870;2023-05-10T06:57:52;29.87;;;17.07;;
9712;SDS011;4895;50.926;6.870;2023-05-10T07:00:18;34.80;;;18.47;;
9712;SDS011;4895;50.926;6.870;2023-05-10T07:02:43;29.67;;;18.03;;
9712;SDS011;4895;50.926;6.870;2023-05-10T07:05:09;32.37;;;16.30;;
9712;SDS011;4895;50.926;6.870;2023-05-10T07:07:34;37.40;;;18.87;;
9712;SDS011;4895;50.926;6.870;2023-05-10T07:10:00;31.10;;;18.80;;
9712;SDS011;4895;50.926;6.870;2023-05-10T07:12:25;40.83;;;17.47;;
9712;SDS011;4895;50.926;6.870;2023-05-10T07:14:51;27.97;;;16.77;;
9712;SDS011;4895;50.926;6.870;2023-05-10T07:17:16;28.73;;;16.53;;
9712;SDS011;4895;50.926;6.870;2023-05-10T07:19:41;33.60;;;18.23;;
9712;SDS011;4895;50.926;6.870;2023-05-10T07:22:06;31.57;;;18.40;;
9712;SDS011;4895;50.926;6.870;2023-05-10T07:24:33;30.67;;;16.90;;
9712;SDS011;4895;50.926;6.870;2023-05-10T07:26:58;32.90;;;17.03;;
9712;SDS011;4895;50.926;6.870;2023-05-10T07:29:23;32.17;;;16.00;;
9712;SDS011;4895;50.926;6.870;2023-05-10T07:31:49;27.03;;;15.30;;
9712;SDS011;4895;50.926;6.870;2023-05-10T07:34:14;30.73;;;16.17;;
9712;SDS011;4895;50.926;6.870;2023-05-10T07:36:39;27.23;;;15.90;;
9712;SDS011;4895;50.926;6.870;2023-05-10T07:39:05;26.60;;;15.17;;
9712;SDS011;4895;50.926;6.870;2023-05-10T07:41:30;33.67;;;16.43;;
9712;SDS011;4895;50.926;6.870;2023-05-10T07:43:55;26.73;;;16.60;;
9712;SDS011;4895;50.926;6.870;2023-05-10T07:46:20;31.60;;;16.47;;
9712;SDS011;4895;50.926;6.870;2023-05-10T07:48:46;29.50;;;15.90;;
9712;SDS011;4895;50.926;6.870;2023-05-10T07:51:11;29.90;;;14.93;;
9712;SDS011;4895;50.926;6.870;2023-05-10T07:53:37;31.63;;;16.80;;
9712;SDS011;4895;50.926;6.870;2023-05-10T07:56:19;26.37;;;12.87;;
9712;SDS011;4895;50.926;6.870;2023-05-10T07:58:55;26.30;;;13.63;;
9712;SDS011;4895;50.926;6.870;2023-05-10T08:01:21;18.93;;;11.53;;
9712;SDS011;4895;50.926;6.870;2023-05-10T08:03:47;25.33;;;13.00;;
9712;SDS011;4895;50.926;6.870;2023-05-10T08:06:12;21.47;;;11.63;;
9712;SDS011;4895;50.926;6.870;2023-05-10T08:08:38;18.03;;;11.23;;
9712;SDS011;4895;50.926;6.870;2023-05-10T08:11:04;19.07;;;9.70;;
9712;SDS011;4895;50.926;6.870;2023-05-10T08:13:29;16.57;;;8.50;;
9712;SDS011;4895;50.926;6.870;2023-05-10T08:15:56;12.10;;;7.77;;
9712;SDS011;4895;50.926;6.870;2023-05-10T08:18:21;17.67;;;8.50;;
9712;SDS011;4895;50.926;6.870;2023-05-10T08:20:46;11.07;;;6.70;;
9712;SDS011;4895;50.926;6.870;2023-05-10T08:23:12;11.93;;;6.30;;
9712;SDS011;4895;50.926;6.870;2023-05-10T08:25:38;16.10;;;7.90;;
9712;SDS011;4895;50.926;6.870;2023-05-10T08:28:03;16.60;;;8.40;;
9712;SDS011;4895;50.926;6.870;2023-05-10T08:30:28;15.70;;;9.50;;
9712;SDS011;4895;50.926;6.870;2023-05-10T08:32:54;12.60;;;8.50;;
9712;SDS011;4895;50.926;6.870;2023-05-10T08:35:19;14.80;;;10.40;;
9712;SDS011;4895;50.926;6.870;2023-05-10T08:37:44;14.77;;;10.03;;
9712;SDS011;4895;50.926;6.870;2023-05-10T08:40:10;21.53;;;12.50;;
9712;SDS011;4895;50.926;6.870;2023-05-10T08:42:36;14.97;;;11.73;;
9712;SDS011;4895;50.926;6.870;2023-05-10T08:45:05;19.50;;;12.00;;
9712;SDS011;4895;50.926;6.870;2023-05-10T08:47:32;18.60;;;12.40;;
9712;SDS011;4895;50.926;6.870;2023-05-10T08:49:58;18.20;;;11.60;;
9712;SDS011;4895;50.926;6.870;2023-05-10T08:52:24;16.87;;;11.80;;
9712;SDS011;4895;50.926;6.870;2023-05-10T08:54:51;19.93;;;11.80;;
9712;SDS011;4895;50.926;6.870;2023-05-10T08:57:16;18.17;;;12.20;;
9712;SDS011;4895;50.926;6.870;2023-05-10T08:59:42;20.10;;;11.57;;
9712;SDS011;4895;50.926;6.870;2023-05-10T09:02:07;22.13;;;12.73;;
9712;SDS011;4895;50.926;6.870;2023-05-10T09:04:34;18.73;;;11.83;;
9712;SDS011;4895;50.926;6.870;2023-05-10T09:06:59;18.40;;;10.97;;
9712;SDS011;4895;50.926;6.870;2023-05-10T09:09:26;15.10;;;11.47;;
9712;SDS011;4895;50.926;6.870;2023-05-10T09:11:52;16.53;;;10.60;;
9712;SDS011;4895;50.926;6.870;2023-05-10T09:14:18;21.57;;;11.30;;
9712;SDS011;4895;50.926;6.870;2023-05-10T09:16:43;16.20;;;11.20;;
9712;SDS011;4895;50.926;6.870;2023-05-10T09:19:09;15.03;;;10.37;;
9712;SDS011;4895;50.926;6.870;2023-05-10T09:21:37;13.03;;;9.00;;
9712;SDS011;4895;50.926;6.870;2023-05-10T09:24:03;18.97;;;8.63;;
9712;SDS011;4895;50.926;6.870;2023-05-10T09:26:30;12.90;;;7.60;;
9712;SDS011;4895;50.926;6.870;2023-05-10T09:28:56;7.97;;;6.57;;
9712;SDS011;4895;50.926;6.870;2023-05-10T09:31:22;19.87;;;9.63;;
9712;SDS011;4895;50.926;6.870;2023-05-10T09:33:48;18.77;;;10.70;;
9712;SDS011;4895;50.926;6.870;2023-05-10T09:36:14;19.33;;;10.10;;
9712;SDS011;4895;50.926;6.870;2023-05-10T09:38:50;19.20;;;12.90;;
9712;SDS011;4895;50.926;6.870;2023-05-10T09:41:19;20.80;;;11.40;;
9712;SDS011;4895;50.926;6.870;2023-05-10T09:43:46;28.07;;;14.10;;
9712;SDS011;4895;50.926;6.870;2023-05-10T09:46:11;22.47;;;12.33;;
9712;SDS011;4895;50.926;6.870;2023-05-10T09:48:44;23.30;;;13.30;;
9712;SDS011;4895;50.926;6.870;2023-05-10T09:51:10;24.93;;;13.73;;
9712;SDS011;4895;50.926;6.870;2023-05-10T09:53:43;22.77;;;12.47;;
9712;SDS011;4895;50.926;6.870;2023-05-10T09:56:09;28.13;;;14.27;;
9712;SDS011;4895;50.926;6.870;2023-05-10T09:58:35;23.97;;;13.57;;
9712;SDS011;4895;50.926;6.870;2023-05-10T10:01:02;19.67;;;12.17;;
9712;SDS011;4895;50.926;6.870;2023-05-10T10:03:28;23.63;;;13.20;;
9712;SDS011;4895;50.926;6.870;2023-05-10T10:05:54;22.03;;;12.03;;
9712;SDS011;4895;50.926;6.870;2023-05-10T10:08:21;22.10;;;11.63;;
9712;SDS011;4895;50.926;6.870;2023-05-10T10:10:46;19.80;;;11.60;;
9712;SDS011;4895;50.926;6.870;2023-05-10T10:13:11;17.57;;;9.27;;
9712;SDS011;4895;50.926;6.870;2023-05-10T10:15:37;15.87;;;9.30;;
9712;SDS011;4895;50.926;6.870;2023-05-10T10:18:02;19.60;;;10.67;;
9712;SDS011;4895;50.926;6.870;2023-05-10T10:20:31;16.73;;;9.47;;
9712;SDS011;4895;50.926;6.870;2023-05-10T10:22:56;22.53;;;9.90;;
9712;SDS011;4895;50.926;6.870;2023-05-10T10:25:21;14.13;;;8.13;;
9712;SDS011;4895;50.926;6.870;2023-05-10T10:35:31;15.90;;;9.73;;
9712;SDS011;4895;50.926;6.870;2023-05-10T10:37:57;17.23;;;10.00;;
9712;SDS011;4895;50.926;6.870;2023-05-10T10:40:32;25.07;;;10.90;;
9712;SDS011;4895;50.926;6.870;2023-05-10T10:42:58;22.17;;;11.87;;
9712;SDS011;4895;50.926;6.870;2023-05-10T10:48:33;21.10;;;11.00;;
9712;SDS011;4895;50.926;6.870;2023-05-10T10:50:58;17.87;;;10.20;;
9712;SDS011;4895;50.926;6.870;2023-05-10T10:53:27;19.57;;;11.00;;
9712;SDS011;4895;50.926;6.870;2023-05-10T10:56:05;15.43;;;9.30;;
9712;SDS011;4895;50.926;6.870;2023-05-10T10:58:35;18.70;;;8.90;;
9712;SDS011;4895;50.926;6.870;2023-05-10T11:03:37;10.97;;;6.40;;
9712;SDS011;4895;50.926;6.870;2023-05-10T11:06:02;8.23;;;4.60;;
9712;SDS011;4895;50.926;6.870;2023-05-10T11:13:38;13.83;;;4.97;;
9712;SDS011;4895;50.926;6.870;2023-05-10T11:16:18;7.20;;;4.73;;
9712;SDS011;4895;50.926;6.870;2023-05-10T11:18:54;8.53;;;5.60;;
9712;SDS011;4895;50.926;6.870;2023-05-10T11:21:27;6.73;;;4.43;;
9712;SDS011;4895;50.926;6.870;2023-05-10T11:23:53;8.20;;;3.40;;
9712;SDS011;4895;50.926;6.870;2023-05-10T11:26:23;5.47;;;3.97;;
9712;SDS011;4895;50.926;6.870;2023-05-10T11:28:55;6.00;;;4.00;;
9712;SDS011;4895;50.926;6.870;2023-05-10T11:31:21;7.13;;;3.50;;
9712;SDS011;4895;50.926;6.870;2023-05-10T11:33:50;7.00;;;3.10;;
9712;SDS011;4895;50.926;6.870;2023-05-10T11:36:17;4.73;;;3.40;;
9712;SDS011;4895;50.926;6.870;2023-05-10T11:38:43;5.43;;;3.50;;
9712;SDS011;4895;50.926;6.870;2023-05-10T11:41:09;4.70;;;2.97;;
9712;SDS011;4895;50.926;6.870;2023-05-10T11:43:36;5.77;;;3.40;;
9712;SDS011;4895;50.926;6.870;2023-05-10T11:46:03;5.67;;;3.30;;
9712;SDS011;4895;50.926;6.870;2023-05-10T11:48:32;4.23;;;3.20;;
9712;SDS011;4895;50.926;6.870;2023-05-10T11:50:58;4.80;;;3.10;;
9712;SDS011;4895;50.926;6.870;2023-05-10T11:53:25;5.40;;;3.30;;
9712;SDS011;4895;50.926;6.870;2023-05-10T11:55:51;5.27;;;2.90;;
9712;SDS011;4895;50.926;6.870;2023-05-10T11:58:17;5.63;;;3.30;;
9712;SDS011;4895;50.926;6.870;2023-05-10T12:00:43;4.03;;;2.90;;
9712;SDS011;4895;50.926;6.870;2023-05-10T12:03:08;3.40;;;2.87;;
9712;SDS011;4895;50.926;6.870;2023-05-10T12:05:35;10.73;;;3.30;;
9712;SDS011;4895;50.926;6.870;2023-05-10T12:08:10;5.70;;;3.20;;
9712;SDS011;4895;50.926;6.870;2023-05-10T12:10:39;10.33;;;3.80;;
9712;SDS011;4895;50.926;6.870;2023-05-10T12:13:05;7.33;;;3.10;;
9712;SDS011;4895;50.926;6.870;2023-05-10T12:15:30;4.27;;;3.40;;
9712;SDS011;4895;50.926;6.870;2023-05-10T12:17:55;5.30;;;2.70;;
9712;SDS011;4895;50.926;6.870;2023-05-10T12:20:22;3.23;;;2.80;;
9712;SDS011;4895;50.926;6.870;2023-05-10T12:22:52;5.33;;;2.63;;
9712;SDS011;4895;50.926;6.870;2023-05-10T12:25:20;3.50;;;2.77;;
9712;SDS011;4895;50.926;6.870;2023-05-10T12:27:56;6.03;;;2.87;;
9712;SDS011;4895;50.926;6.870;2023-05-10T12:30:23;4.30;;;3.20;;
9712;SDS011;4895;50.926;6.870;2023-05-10T12:32:49;4.60;;;2.90;;
9712;SDS011;4895;50.926;6.870;2023-05-10T12:35:14;3.73;;;3.17;;
9712;SDS011;4895;50.926;6.870;2023-05-10T12:37:41;8.13;;;2.77;;
9712;SDS011;4895;50.926;6.870;2023-05-10T12:40:08;3.80;;;3.10;;
9712;SDS011;4895;50.926;6.870;2023-05-10T12:42:34;6.10;;;3.10;;
9712;SDS011;4895;50.926;6.870;2023-05-10T12:45:00;3.37;;;3.07;;
9712;SDS011;4895;50.926;6.870;2023-05-10T12:47:26;4.63;;;2.80;;
9712;SDS011;4895;50.926;6.870;2023-05-10T12:49:52;4.40;;;2.60;;
9712;SDS011;4895;50.926;6.870;2023-05-10T12:52:17;2.83;;;2.20;;
9712;SDS011;4895;50.926;6.870;2023-05-10T12:54:42;6.73;;;3.03;;
9712;SDS011;4895;50.926;6.870;2023-05-10T12:57:08;3.60;;;2.20;;
9712;SDS011;4895;50.926;6.870;2023-05-10T12:59:33;2.27;;;1.90;;
9712;SDS011;4895;50.926;6.870;2023-05-10T13:01:58;2.50;;;2.30;;
9712;SDS011;4895;50.926;6.870;2023-05-10T13:04:23;2.10;;;1.83;;
9712;SDS011;4895;50.926;6.870;2023-05-10T13:06:49;4.03;;;1.90;;
9712;SDS011;4895;50.926;6.870;2023-05-10T13:09:14;2.67;;;2.10;;
9712;SDS011;4895;50.926;6.870;2023-05-10T13:11:40;3.60;;;2.60;;
9712;SDS011;4895;50.926;6.870;2023-05-10T13:14:05;2.87;;;2.20;;
9712;SDS011;4895;50.926;6.870;2023-05-10T13:16:31;2.70;;;2.10;;
9712;SDS011;4895;50.926;6.870;2023-05-10T13:18:56;3.10;;;2.37;;
9712;SDS011;4895;50.926;6.870;2023-05-10T13:21:21;2.20;;;1.80;;
9712;SDS011;4895;50.926;6.870;2023-05-10T13:23:47;3.70;;;1.90;;
9712;SDS011;4895;50.926;6.870;2023-05-10T13:26:12;4.10;;;2.50;;
9712;SDS011;4895;50.926;6.870;2023-05-10T13:28:38;2.53;;;1.97;;
9712;SDS011;4895;50.926;6.870;2023-05-10T13:31:03;1.90;;;1.50;;
9712;SDS011;4895;50.926;6.870;2023-05-10T13:33:29;3.50;;;1.63;;
9712;SDS011;4895;50.926;6.870;2023-05-10T13:35:55;2.67;;;1.50;;
9712;SDS011;4895;50.926;6.870;2023-05-10T13:38:20;2.57;;;1.60;;
9712;SDS011;4895;50.926;6.870;2023-05-10T13:40:45;6.00;;;1.83;;
9712;SDS011;4895;50.926;6.870;2023-05-10T13:43:11;2.87;;;1.50;;
9712;SDS011;4895;50.926;6.870;2023-05-10T13:45:36;2.30;;;1.20;;
9712;SDS011;4895;50.926;6.870;2023-05-10T13:48:01;2.07;;;1.23;;
9712;SDS011;4895;50.926;6.870;2023-05-10T13:50:27;3.67;;;1.57;;
9712;SDS011;4895;50.926;6.870;2023-05-10T13:52:52;4.17;;;1.50;;
9712;SDS011;4895;50.926;6.870;2023-05-10T13:55:17;3.20;;;1.53;;
9712;SDS011;4895;50.926;6.870;2023-05-10T13:57:43;1.97;;;1.30;;
9712;SDS011;4895;50.926;6.870;2023-05-10T14:00:08;3.43;;;1.43;;
9712;SDS011;4895;50.926;6.870;2023-05-10T14:02:34;2.30;;;1.30;;
9712;SDS011;4895;50.926;6.870;2023-05-10T14:04:59;3.70;;;1.50;;
9712;SDS011;4895;50.926;6.870;2023-05-10T14:07:25;3.47;;;1.30;;
9712;SDS011;4895;50.926;6.870;2023-05-10T14:09:50;1.60;;;1.10;;
9712;SDS011;4895;50.926;6.870;2023-05-10T14:12:16;5.50;;;1.37;;
9712;SDS011;4895;50.926;6.870;2023-05-10T14:14:41;1.60;;;1.00;;
9712;SDS011;4895;50.926;6.870;2023-05-10T14:17:07;2.47;;;1.40;;
9712;SDS011;4895;50.926;6.870;2023-05-10T14:19:32;2.60;;;1.53;;
9712;SDS011;4895;50.926;6.870;2023-05-10T14:21:59;2.20;;;1.40;;
9712;SDS011;4895;50.926;6.870;2023-05-10T14:24:24;2.03;;;1.50;;
9712;SDS011;4895;50.926;6.870;2023-05-10T14:26:50;5.37;;;1.40;;
9712;SDS011;4895;50.926;6.870;2023-05-10T14:29:18;2.97;;;1.90;;
9712;SDS011;4895;50.926;6.870;2023-05-10T14:31:43;3.33;;;1.83;;
9712;SDS011;4895;50.926;6.870;2023-05-10T14:34:09;1.90;;;1.40;;
9712;SDS011;4895;50.926;6.870;2023-05-10T14:36:34;4.20;;;1.60;;
9712;SDS011;4895;50.926;6.870;2023-05-10T14:39:00;1.90;;;1.40;;
9712;SDS011;4895;50.926;6.870;2023-05-10T14:41:25;2.50;;;1.80;;
9712;SDS011;4895;50.926;6.870;2023-05-10T14:43:50;2.07;;;1.53;;
9712;SDS011;4895;50.926;6.870;2023-05-10T14:46:16;3.20;;;1.87;;
9712;SDS011;4895;50.926;6.870;2023-05-10T14:48:41;2.63;;;1.97;;
9712;SDS011;4895;50.926;6.870;2023-05-10T14:51:07;5.20;;;2.73;;
9712;SDS011;4895;50.926;6.870;2023-05-10T14:53:32;7.60;;;2.67;;
9712;SDS011;4895;50.926;6.870;2023-05-10T14:55:57;4.23;;;2.03;;
9712;SDS011;4895;50.926;6.870;2023-05-10T14:58:23;3.00;;;1.83;;
9712;SDS011;4895;50.926;6.870;2023-05-10T15:00:48;6.03;;;1.77;;
9712;SDS011;4895;50.926;6.870;2023-05-10T15:03:13;3.53;;;1.53;;
9712;SDS011;4895;50.926;6.870;2023-05-10T15:05:38;2.63;;;1.40;;
9712;SDS011;4895;50.926;6.870;2023-05-10T15:08:04;4.07;;;1.90;;
9712;SDS011;4895;50.926;6.870;2023-05-10T15:10:30;3.20;;;2.10;;
9712;SDS011;4895;50.926;6.870;2023-05-10T15:12:57;4.73;;;2.60;;
9712;SDS011;4895;50.926;6.870;2023-05-10T15:15:22;2.37;;;1.90;;
9712;SDS011;4895;50.926;6.870;2023-05-10T15:17:48;5.47;;;2.50;;
9712;SDS011;4895;50.926;6.870;2023-05-10T15:20:13;3.90;;;2.33;;
9712;SDS011;4895;50.926;6.870;2023-05-10T15:22:39;4.50;;;2.57;;
9712;SDS011;4895;50.926;6.870;2023-05-10T15:25:05;4.00;;;2.60;;
9712;SDS011;4895;50.926;6.870;2023-05-10T15:27:30;4.27;;;2.80;;